Time;durP1;ratioP1;P1;durP2;ratioP2;P2;SDS_P1;SDS_P2;PMS_P1;PMS_P2;Temp;Humidity;BMP_temperature;BMP_pressure;BME280_temperature;BME280_humidity;BME280_pressure;Samples;Min_cycle;Max_cycle;Signal;HPM_P1;HPM_P2
2022/08/28 00:00:08;;;;;;;8.43;3.47;;;23.70;49.00;;;;;;5058735;28;20497;-78
2022/08/28 00:02:36;;;;;;;8.90;3.40;;;23.70;49.50;;;;;;5076407;28;20489;-78
2022/08/28 00:05:05;;;;;;;10.67;3.17;;;23.70;48.80;;;;;;5077544;28;20523;-78
2022/08/28 00:07:33;;;;;;;8.60;3.20;;;23.60;48.90;;;;;;5077673;28;20476;-78
2022/08/28 00:10:01;;;;;;;7.47;3.40;;;23.50;49.10;;;;;;5078506;28;20480;-78
2022/08/28 00:12:30;;;;;;;10.60;3.50;;;23.50;49.00;;;;;;5077414;28;20532;-78
2022/08/28 00:14:59;;;;;;;11.93;3.80;;;23.50;49.30;;;;;;5077639;28;20549;-78
2022/08/28 00:17:27;;;;;;;8.23;3.90;;;23.50;49.10;;;;;;5063793;28;20468;-78
2022/08/28 00:19:55;;;;;;;6.90;3.37;;;23.40;49.40;;;;;;5077998;28;20430;-78
2022/08/28 00:22:23;;;;;;;10.03;3.67;;;23.40;49.50;;;;;;5077502;28;20457;-78
2022/08/28 00:24:51;;;;;;;5.90;3.43;;;23.40;49.20;;;;;;5077404;28;20533;-78
2022/08/28 00:30:10;;;;;;;7.53;3.50;;;23.30;49.40;;;;;;5077860;28;20524;-79
2022/08/28 00:32:38;;;;;;;13.87;3.80;;;23.20;49.40;;;;;;5074590;28;20478;-78
2022/08/28 00:35:06;;;;;;;6.90;3.50;;;23.20;49.40;;;;;;5072823;28;20511;-79
2022/08/28 00:37:35;;;;;;;8.30;4.20;;;23.20;49.60;;;;;;5079160;28;20465;-78
2022/08/28 00:40:03;;;;;;;14.83;4.43;;;23.20;49.70;;;;;;5078843;28;20517;-77
2022/08/28 00:42:33;;;;;;;7.13;3.97;;;23.10;49.60;;;;;;5078790;28;20446;-78
2022/08/28 00:45:01;;;;;;;12.93;4.17;;;23.20;49.90;;;;;;5077567;28;20512;-78
2022/08/28 00:47:33;;;;;;;6.00;3.63;;;23.20;49.50;;;;;;5076225;28;20440;-78
2022/08/28 00:50:01;;;;;;;6.63;3.13;;;23.10;49.50;;;;;;5057064;28;20427;-78
2022/08/28 00:52:28;;;;;;;5.97;3.10;;;23.20;49.70;;;;;;5075191;28;20529;-77
2022/08/28 00:54:58;;;;;;;9.53;3.53;;;23.10;49.60;;;;;;5077494;28;20461;-78
2022/08/28 00:57:28;;;;;;;8.97;3.40;;;23.10;49.70;;;;;;5076838;28;20470;-78
2022/08/28 00:59:56;;;;;;;9.63;3.27;;;23.00;49.90;;;;;;5076862;28;20445;-79
2022/08/28 01:02:25;;;;;;;10.30;3.40;;;23.00;49.80;;;;;;5076306;28;20573;-78
2022/08/28 01:04:54;;;;;;;7.00;3.13;;;22.90;49.70;;;;;;5061896;28;20553;-79
2022/08/28 01:07:22;;;;;;;7.13;3.30;;;22.90;49.90;;;;;;5056064;28;20421;-78
2022/08/28 01:09:52;;;;;;;7.33;3.30;;;22.90;49.90;;;;;;5057253;28;20447;-79
2022/08/28 01:12:22;;;;;;;7.93;3.40;;;22.90;49.80;;;;;;5057589;28;20450;-78
2022/08/28 01:14:51;;;;;;;8.73;3.03;;;22.90;49.90;;;;;;5057004;28;20549;-79
2022/08/28 01:17:19;;;;;;;5.40;2.90;;;22.80;50.00;;;;;;5063750;28;20477;-79
2022/08/28 01:19:51;;;;;;;5.40;2.77;;;22.70;50.20;;;;;;5065245;28;20514;-79
2022/08/28 01:22:22;;;;;;;10.60;3.30;;;22.70;50.30;;;;;;5069520;28;20458;-78
2022/08/28 01:24:52;;;;;;;7.07;3.53;;;22.70;50.20;;;;;;5082559;28;20537;-79
2022/08/28 01:27:20;;;;;;;8.60;3.50;;;22.80;49.90;;;;;;5081404;28;20496;-78
2022/08/28 01:29:51;;;;;;;7.93;2.87;;;22.70;49.90;;;;;;5080958;28;20449;-78
2022/08/28 01:32:33;;;;;;;8.27;3.27;;;22.70;50.10;;;;;;5081262;28;20471;-78
2022/08/28 01:35:01;;;;;;;9.17;3.67;;;22.70;50.30;;;;;;5082438;28;20485;-78
2022/08/28 01:37:30;;;;;;;5.77;3.17;;;22.70;50.00;;;;;;5082032;28;20473;-79
2022/08/28 01:40:01;;;;;;;6.43;2.83;;;22.70;50.00;;;;;;5077335;28;20488;-78
2022/08/28 01:42:29;;;;;;;15.33;3.00;;;22.60;50.10;;;;;;5084583;28;20450;-79
2022/08/28 01:44:57;;;;;;;6.87;2.90;;;22.60;50.50;;;;;;5084531;28;20525;-78
2022/08/28 01:47:25;;;;;;;11.53;3.10;;;22.60;50.20;;;;;;5084102;28;20465;-78
2022/08/28 01:49:53;;;;;;;7.60;3.03;;;22.60;50.60;;;;;;5084734;28;20438;-79
2022/08/28 01:52:20;;;;;;;7.20;2.77;;;22.70;50.20;;;;;;5084519;28;20499;-79
2022/08/28 01:54:53;;;;;;;14.97;2.80;;;22.60;50.30;;;;;;5083738;28;20467;-79
2022/08/28 01:57:23;;;;;;;9.23;2.80;;;22.70;50.50;;;;;;5084228;28;20495;-78
2022/08/28 01:59:53;;;;;;;10.43;3.20;;;22.70;50.30;;;;;;5083901;28;20476;-78
2022/08/28 02:02:21;;;;;;;6.17;2.50;;;22.60;50.30;;;;;;5083047;28;20503;-78
2022/08/28 02:04:49;;;;;;;8.77;3.37;;;22.60;50.20;;;;;;5084498;28;20497;-79
2022/08/28 02:07:17;;;;;;;7.33;2.83;;;22.60;50.40;;;;;;5083657;28;20430;-78
2022/08/28 02:09:45;;;;;;;7.67;2.20;;;22.60;50.40;;;;;;5083208;28;20477;-78
2022/08/28 02:12:13;;;;;;;5.87;2.83;;;22.60;50.00;;;;;;5081530;28;20508;-79
2022/08/28 02:14:42;;;;;;;8.27;3.30;;;22.60;50.40;;;;;;5083773;28;20512;-79
2022/08/28 02:17:10;;;;;;;12.30;3.20;;;22.60;49.90;;;;;;5082811;28;20560;-79
2022/08/28 02:19:38;;;;;;;11.70;3.37;;;22.50;50.20;;;;;;5082457;28;20485;-79
2022/08/28 02:22:08;;;;;;;9.90;3.40;;;22.50;50.20;;;;;;5081372;28;20442;-79
2022/08/28 02:24:36;;;;;;;7.70;2.73;;;22.50;50.40;;;;;;5081632;28;20472;-78
2022/08/28 02:27:04;;;;;;;4.70;2.40;;;22.50;50.30;;;;;;5081040;28;20461;-79
2022/08/28 02:29:32;;;;;;;8.87;2.50;;;22.40;50.30;;;;;;5080904;28;20540;-79
2022/08/28 02:32:04;;;;;;;9.50;2.73;;;22.40;50.40;;;;;;5081903;28;20492;-78
2022/08/28 02:34:32;;;;;;;6.90;2.90;;;22.30;50.40;;;;;;5082368;28;20500;-78
2022/08/28 02:37:01;;;;;;;7.60;3.20;;;22.40;50.50;;;;;;5082626;28;20441;-79
2022/08/28 02:39:29;;;;;;;7.43;2.63;;;22.30;50.30;;;;;;5082427;28;20420;-79
2022/08/28 02:41:56;;;;;;;5.53;2.43;;;22.30;50.40;;;;;;5081728;28;20426;-78
2022/08/28 02:44:24;;;;;;;5.17;2.30;;;22.20;50.40;;;;;;5083176;28;20475;-79
2022/08/28 02:46:52;;;;;;;4.43;2.43;;;22.20;50.70;;;;;;5076121;28;20448;-78
2022/08/28 02:49:22;;;;;;;7.00;2.70;;;22.30;50.60;;;;;;5081558;28;20444;-79
2022/08/28 02:51:50;;;;;;;12.03;2.87;;;22.20;50.40;;;;;;5081902;28;20440;-78
2022/08/28 02:54:20;;;;;;;13.20;3.10;;;22.20;50.60;;;;;;5075543;28;20502;-79
2022/08/28 02:56:47;;;;;;;6.30;2.50;;;22.20;50.80;;;;;;5082540;28;20464;-78
2022/08/28 02:59:15;;;;;;;6.67;2.57;;;22.20;50.40;;;;;;5082439;28;20516;-79
2022/08/28 03:01:43;;;;;;;3.90;2.53;;;22.10;50.60;;;;;;5070234;28;20492;-79
2022/08/28 03:04:11;;;;;;;8.37;3.00;;;22.10;50.50;;;;;;5076064;28;20446;-79
2022/08/28 03:06:40;;;;;;;10.43;2.77;;;22.00;50.80;;;;;;5080245;28;20416;-79
2022/08/28 03:09:09;;;;;;;9.00;2.93;;;22.00;50.80;;;;;;5079649;28;20438;-78
2022/08/28 03:11:36;;;;;;;7.93;4.10;;;22.00;50.90;;;;;;5079715;28;20566;-79
2022/08/28 03:14:04;;;;;;;8.53;4.40;;;22.00;50.80;;;;;;5082641;28;20495;-79
2022/08/28 03:16:33;;;;;;;8.30;5.13;;;22.00;50.70;;;;;;5072343;28;20460;-79
2022/08/28 03:19:01;;;;;;;9.40;4.70;;;22.00;50.80;;;;;;5065109;28;20444;-78
2022/08/28 03:21:29;;;;;;;13.33;3.87;;;21.90;50.60;;;;;;5079150;28;20464;-79
2022/08/28 03:23:58;;;;;;;6.87;3.20;;;21.80;50.90;;;;;;5079326;28;20448;-78
2022/08/28 03:26:26;;;;;;;9.20;3.87;;;21.80;51.00;;;;;;5080957;28;20460;-79
2022/08/28 03:28:55;;;;;;;12.10;4.33;;;21.70;51.00;;;;;;5080343;28;20950;-78
2022/08/28 03:31:28;;;;;;;8.10;3.50;;;21.70;51.40;;;;;;5084570;28;20462;-79
2022/08/28 03:33:57;;;;;;;6.30;3.30;;;21.70;51.20;;;;;;5079053;28;20548;-79
2022/08/28 03:36:26;;;;;;;7.83;3.10;;;21.70;51.40;;;;;;5079144;28;20540;-79
2022/08/28 03:38:55;;;;;;;10.10;3.50;;;21.60;51.50;;;;;;5077565;28;20444;-78
2022/08/28 03:41:26;;;;;;;8.43;2.90;;;21.50;51.70;;;;;;5078825;28;20528;-78
2022/08/28 03:43:56;;;;;;;10.53;3.70;;;21.50;51.60;;;;;;5078862;28;20536;-79
2022/08/28 03:46:24;;;;;;;7.87;3.00;;;21.50;51.50;;;;;;5080376;28;20440;-78
2022/08/28 03:48:52;;;;;;;5.90;2.70;;;21.40;51.70;;;;;;5078386;28;20500;-78
2022/08/28 03:51:23;;;;;;;6.37;2.67;;;21.40;51.80;;;;;;5076221;28;20461;-78
2022/08/28 03:53:56;;;;;;;2.43;2.20;;;21.30;51.90;;;;;;5078461;28;20449;-78
2022/08/28 03:56:26;;;;;;;16.70;3.23;;;21.30;52.10;;;;;;5079518;28;20456;-78
2022/08/28 03:58:56;;;;;;;9.90;3.03;;;21.20;52.00;;;;;;5079286;28;20470;-79
2022/08/28 04:01:24;;;;;;;4.33;3.10;;;21.20;51.80;;;;;;5077845;28;20499;-79
2022/08/28 04:03:52;;;;;;;5.80;2.80;;;21.20;52.00;;;;;;5078600;28;20474;-78
2022/08/28 04:06:20;;;;;;;5.07;2.67;;;21.20;52.30;;;;;;5079827;28;20529;-79
2022/08/28 04:08:48;;;;;;;8.20;2.63;;;21.20;52.40;;;;;;5058730;28;20448;-78
2022/08/28 04:11:17;;;;;;;6.27;2.20;;;21.30;52.30;;;;;;5075769;28;20509;-78
2022/08/28 04:13:46;;;;;;;4.13;2.53;;;21.30;52.20;;;;;;5079007;28;20564;-78
2022/08/28 04:16:17;;;;;;;8.10;3.47;;;21.30;52.20;;;;;;5079808;28;20568;-78
2022/08/28 04:18:46;;;;;;;6.60;3.17;;;21.30;52.20;;;;;;5079495;28;20477;-78
2022/08/28 04:21:15;;;;;;;10.93;2.60;;;21.30;52.20;;;;;;5081794;28;20516;-79
2022/08/28 04:23:43;;;;;;;7.60;3.00;;;21.30;52.40;;;;;;5078962;28;20516;-78
2022/08/28 04:26:13;;;;;;;6.47;3.30;;;21.30;52.10;;;;;;5079409;28;20479;-78
2022/08/28 04:28:41;;;;;;;6.13;3.07;;;21.30;51.90;;;;;;5081544;28;20508;-78
2022/08/28 04:31:10;;;;;;;6.83;2.90;;;21.40;52.40;;;;;;5084011;28;20516;-78
2022/08/28 04:33:39;;;;;;;5.10;2.93;;;21.30;51.80;;;;;;5080321;28;20485;-78
2022/08/28 04:36:08;;;;;;;8.17;2.87;;;21.30;52.10;;;;;;5080150;28;20553;-78
2022/08/28 04:38:38;;;;;;;4.73;3.23;;;21.30;52.10;;;;;;5079992;28;20470;-78
2022/08/28 04:41:11;;;;;;;8.63;3.73;;;21.30;52.00;;;;;;5079567;28;20453;-78
2022/08/28 04:43:39;;;;;;;8.03;3.10;;;21.30;52.00;;;;;;5080207;28;20501;-78
2022/08/28 04:46:08;;;;;;;9.20;3.77;;;21.30;52.50;;;;;;5079257;28;20537;-78
2022/08/28 04:48:37;;;;;;;11.60;4.43;;;21.20;52.00;;;;;;5079980;28;20432;-78
2022/08/28 04:51:07;;;;;;;10.27;3.87;;;21.20;52.30;;;;;;5080711;28;20536;-79
2022/08/28 04:53:35;;;;;;;9.97;4.03;;;21.20;52.30;;;;;;5081312;28;20515;-78
2022/08/28 04:56:04;;;;;;;8.07;3.60;;;21.20;52.30;;;;;;5080687;28;20461;-78
2022/08/28 04:58:32;;;;;;;6.10;3.03;;;21.20;52.40;;;;;;5066384;28;20497;-78
2022/08/28 05:01:05;;;;;;;10.93;4.07;;;21.20;52.40;;;;;;5080287;28;20446;-78
2022/08/28 05:03:33;;;;;;;12.07;4.30;;;21.20;52.30;;;;;;5080408;28;20472;-79
2022/08/28 05:06:03;;;;;;;11.80;4.40;;;21.20;52.40;;;;;;5081564;28;20553;-79
2022/08/28 05:08:31;;;;;;;12.60;4.10;;;21.20;52.50;;;;;;5081988;28;20495;-78
2022/08/28 05:11:09;;;;;;;9.37;4.70;;;21.10;52.40;;;;;;5082530;28;20422;-79
2022/08/28 05:13:37;;;;;;;13.07;4.40;;;21.10;52.50;;;;;;5085451;28;20528;-79
2022/08/28 05:16:05;;;;;;;8.60;4.60;;;21.10;52.70;;;;;;5085406;28;20479;-79
2022/08/28 05:18:34;;;;;;;8.20;4.23;;;21.10;52.40;;;;;;5085089;28;20491;-79
2022/08/28 05:21:03;;;;;;;9.00;4.40;;;21.20;52.50;;;;;;5087757;28;20432;-79
2022/08/28 05:23:31;;;;;;;10.37;4.80;;;21.20;52.70;;;;;;5092371;28;20473;-79
2022/08/28 05:25:59;;;;;;;10.27;4.43;;;21.10;52.50;;;;;;5092795;28;20485;-79
2022/08/28 05:28:27;;;;;;;10.27;4.83;;;21.10;52.40;;;;;;5092102;28;20533;-79
2022/08/28 05:30:55;;;;;;;10.97;4.67;;;21.20;53.00;;;;;;5090779;28;20517;-79
2022/08/28 05:33:23;;;;;;;14.23;4.73;;;21.20;52.30;;;;;;5088423;28;20540;-78
2022/08/28 05:35:51;;;;;;;25.03;14.20;;;21.20;52.80;;;;;;5091635;28;20500;-78
2022/08/28 05:38:20;;;;;;;28.10;16.60;;;21.20;52.70;;;;;;5091118;28;20473;-79
2022/08/28 05:40:48;;;;;;;32.07;20.57;;;21.20;53.00;;;;;;5091462;28;20536;-79
2022/08/28 05:43:17;;;;;;;26.60;15.73;;;21.20;52.90;;;;;;5089005;28;20469;-79
2022/08/28 05:45:44;;;;;;;21.80;12.47;;;21.30;53.10;;;;;;5089954;28;20440;-79
2022/08/28 05:48:13;;;;;;;20.17;12.60;;;21.30;53.00;;;;;;5087403;28;20504;-78
2022/08/28 05:50:42;;;;;;;18.97;10.47;;;21.40;53.00;;;;;;5090351;28;20445;-79
2022/08/28 05:53:15;;;;;;;16.33;10.57;;;21.40;53.10;;;;;;5088914;28;20414;-78
2022/08/28 05:55:44;;;;;;;12.20;7.70;;;21.50;52.80;;;;;;5090319;28;20489;-78
2022/08/28 05:58:32;;;;;;;16.13;6.93;;;21.40;52.70;;;;;;5089381;28;20449;-78
2022/08/28 06:01:08;;;;;;;11.50;6.70;;;21.50;52.60;;;;;;5090678;28;20472;-78
2022/08/28 06:03:36;;;;;;;12.20;6.30;;;21.50;52.50;;;;;;5090128;28;20521;-79
2022/08/28 06:06:04;;;;;;;9.73;6.67;;;21.60;52.40;;;;;;5086694;28;20442;-79
2022/08/28 06:08:32;;;;;;;15.23;9.43;;;21.60;52.40;;;;;;5090956;28;20514;-79
2022/08/28 06:11:04;;;;;;;7.77;5.40;;;21.60;52.50;;;;;;5090419;28;20528;-79
2022/08/28 06:13:33;;;;;;;15.73;7.43;;;21.70;52.60;;;;;;5090331;28;20445;-79
2022/08/28 06:16:03;;;;;;;22.30;10.80;;;21.70;52.40;;;;;;5089056;28;20433;-79
2022/08/28 06:18:32;;;;;;;12.20;7.20;;;21.80;52.50;;;;;;5089310;28;20477;-79
2022/08/28 06:21:01;;;;;;;12.20;5.60;;;21.90;52.60;;;;;;5088407;28;20470;-79
2022/08/28 06:23:29;;;;;;;10.20;4.83;;;21.90;52.40;;;;;;5073102;28;20458;-79
2022/08/28 06:25:57;;;;;;;7.57;4.60;;;22.00;52.40;;;;;;5088170;28;20464;-79
2022/08/28 06:28:27;;;;;;;9.57;4.70;;;22.10;52.30;;;;;;5089585;28;20454;-79
2022/08/28 06:30:57;;;;;;;7.00;4.13;;;22.20;52.30;;;;;;5089982;28;20472;-79
2022/08/28 06:33:45;;;;;;;8.60;4.60;;;22.20;52.00;;;;;;5089031;28;20497;-79
2022/08/28 06:36:13;;;;;;;9.33;4.77;;;22.30;52.10;;;;;;5087090;28;20469;-79
2022/08/28 06:38:45;;;;;;;9.30;4.20;;;22.40;51.90;;;;;;5088362;28;20477;-79
2022/08/28 06:41:14;;;;;;;8.60;3.50;;;22.40;52.20;;;;;;5091507;28;20440;-79
2022/08/28 06:43:43;;;;;;;9.30;4.53;;;22.50;52.00;;;;;;5089371;28;20529;-79
2022/08/28 06:46:11;;;;;;;14.60;4.00;;;22.50;51.80;;;;;;5091586;28;20459;-79
2022/08/28 06:48:39;;;;;;;4.93;2.77;;;22.60;51.60;;;;;;5091487;28;20460;-79
2022/08/28 06:51:08;;;;;;;10.07;3.83;;;22.70;51.40;;;;;;5089479;28;20487;-79
2022/08/28 06:53:36;;;;;;;14.70;3.57;;;22.80;51.20;;;;;;5090587;28;20509;-80
2022/08/28 06:56:06;;;;;;;6.87;3.17;;;22.80;51.10;;;;;;5089778;28;20549;-79
2022/08/28 06:58:34;;;;;;;6.00;3.40;;;22.80;51.20;;;;;;5091019;28;20424;-79
2022/08/28 07:01:09;;;;;;;8.47;3.43;;;22.90;51.10;;;;;;5080774;28;20529;-78
2022/08/28 07:03:39;;;;;;;13.23;3.57;;;22.90;50.90;;;;;;5082393;28;20444;-78
2022/08/28 07:06:11;;;;;;;6.93;3.30;;;23.00;50.60;;;;;;5082926;28;20499;-79
2022/08/28 07:08:39;;;;;;;8.30;3.20;;;23.00;50.80;;;;;;5084419;28;20503;-79
2022/08/28 07:11:12;;;;;;;5.10;2.63;;;23.00;50.60;;;;;;5082904;28;20523;-78
2022/08/28 07:13:41;;;;;;;4.57;2.47;;;23.10;50.40;;;;;;5072948;28;20439;-78
2022/08/28 07:16:10;;;;;;;9.57;3.33;;;23.10;50.20;;;;;;5080124;28;20515;-78
2022/08/28 07:18:39;;;;;;;2.60;2.30;;;23.20;50.30;;;;;;5081632;28;20503;-78
2022/08/28 07:21:06;;;;;;;5.10;2.60;;;23.30;50.00;;;;;;5079439;28;20444;-77
2022/08/28 07:23:39;;;;;;;6.77;3.87;;;23.40;49.80;;;;;;5079963;28;20412;-78
2022/08/28 07:26:08;;;;;;;9.90;4.83;;;23.40;49.20;;;;;;5084264;28;20448;-78
2022/08/28 07:28:36;;;;;;;7.80;4.50;;;23.50;48.40;;;;;;5083709;28;20528;-79
2022/08/28 07:31:06;;;;;;;8.17;3.50;;;23.50;48.80;;;;;;5086040;28;20480;-78
2022/08/28 07:33:35;;;;;;;12.03;3.97;;;23.60;48.00;;;;;;5082974;28;20427;-78
2022/08/28 07:36:05;;;;;;;10.07;3.13;;;23.70;48.20;;;;;;5078626;28;20877;-78
2022/08/28 07:38:33;;;;;;;9.10;3.30;;;23.70;47.60;;;;;;5079615;28;20476;-78
2022/08/28 07:41:02;;;;;;;5.80;2.20;;;23.80;47.50;;;;;;5078273;28;20451;-77
2022/08/28 07:46:15;;;;;;;8.97;3.23;;;23.90;47.00;;;;;;5072019;28;20539;-77
2022/08/28 07:48:46;;;;;;;7.30;4.57;;;24.00;46.70;;;;;;5061552;28;20435;-77
2022/08/28 07:51:14;;;;;;;9.93;2.50;;;24.10;46.60;;;;;;5058985;28;20504;-79
2022/08/28 07:53:42;;;;;;;7.00;2.90;;;24.20;46.20;;;;;;5056380;28;20480;-79
2022/08/28 07:56:10;;;;;;;5.73;2.00;;;24.20;46.30;;;;;;5057534;28;20456;-80
2022/08/28 07:58:39;;;;;;;5.73;2.70;;;23.80;46.20;;;;;;5077765;28;20887;-78
2022/08/28 08:01:06;;;;;;;5.70;2.80;;;24.10;47.40;;;;;;5075165;28;20473;-78
2022/08/28 08:03:34;;;;;;;6.23;2.53;;;24.40;46.50;;;;;;5075551;28;20433;-79
2022/08/28 08:06:04;;;;;;;4.77;2.40;;;24.70;46.20;;;;;;5061879;28;20470;-79
2022/08/28 08:08:33;;;;;;;5.53;2.63;;;25.00;45.20;;;;;;5058874;28;20541;-80
2022/08/28 08:11:02;;;;;;;12.00;3.80;;;24.80;45.60;;;;;;5059614;28;20502;-79
2022/08/28 08:13:30;;;;;;;11.53;5.03;;;25.00;45.50;;;;;;5056139;28;20421;-79
2022/08/28 08:16:02;;;;;;;6.83;2.93;;;25.00;44.70;;;;;;5053731;28;20474;-79
2022/08/28 08:18:30;;;;;;;9.43;2.30;;;24.70;46.00;;;;;;5060537;28;20428;-78
2022/08/28 08:20:58;;;;;;;6.03;2.57;;;24.30;46.20;;;;;;5074196;28;20440;-79
2022/08/28 08:23:28;;;;;;;8.63;2.63;;;24.70;47.10;;;;;;5069103;28;20441;-81
2022/08/28 08:25:56;;;;;;;7.03;2.43;;;24.80;45.70;;;;;;5057105;28;20516;-80
2022/08/28 08:28:24;;;;;;;7.67;4.30;;;24.60;45.70;;;;;;5057855;28;20478;-80
2022/08/28 08:31:02;;;;;;;8.70;3.10;;;24.90;46.10;;;;;;5079352;28;20502;-79
2022/08/28 08:33:31;;;;;;;10.00;2.83;;;24.70;46.80;;;;;;5080640;28;20444;-80
2022/08/28 08:35:59;;;;;;;11.83;2.80;;;24.40;46.40;;;;;;5089206;28;20481;-80
2022/08/28 08:38:30;;;;;;;9.90;2.50;;;24.10;47.90;;;;;;5074591;28;20515;-80
2022/08/28 08:40:59;;;;;;;10.57;5.97;;;24.10;48.60;;;;;;5079137;28;20500;-79
2022/08/28 08:43:27;;;;;;;9.03;5.10;;;23.70;48.10;;;;;;5080636;28;20420;-79
2022/08/28 08:45:55;;;;;;;5.37;3.10;;;23.90;48.20;;;;;;5078079;28;20539;-79
2022/08/28 08:48:27;;;;;;;10.33;3.60;;;23.80;48.50;;;;;;5063681;28;20971;-79
2022/08/28 08:50:56;;;;;;;7.10;3.67;;;24.10;48.90;;;;;;5073480;28;20438;-79
2022/08/28 08:53:27;;;;;;;8.57;3.33;;;24.40;48.00;;;;;;5073765;28;20463;-80
2022/08/28 08:55:57;;;;;;;14.43;3.73;;;24.40;46.90;;;;;;5079139;28;20497;-80
2022/08/28 08:58:28;;;;;;;6.23;2.70;;;24.60;47.70;;;;;;5077348;28;20464;-80
2022/08/28 09:01:15;;;;;;;5.47;2.43;;;24.60;46.90;;;;;;5065894;28;20538;-80
2022/08/28 09:03:48;;;;;;;8.63;3.10;;;24.20;46.00;;;;;;5081395;28;20416;-79
2022/08/28 09:06:25;;;;;;;11.77;3.47;;;24.30;45.70;;;;;;5078855;28;20412;-80
2022/08/28 09:08:57;;;;;;;7.70;3.00;;;24.50;46.40;;;;;;5079068;28;20495;-79
2022/08/28 09:11:32;;;;;;;5.87;2.40;;;24.90;46.20;;;;;;5073110;28;20464;-79
2022/08/28 09:14:03;;;;;;;8.23;2.97;;;25.20;45.00;;;;;;5080891;28;20500;-79
2022/08/28 09:16:32;;;;;;;14.43;6.63;;;25.60;43.20;;;;;;5081157;28;20506;-79
2022/08/28 09:19:00;;;;;;;9.83;4.57;;;25.50;43.20;;;;;;5060589;28;20424;-79
2022/08/28 09:21:29;;;;;;;14.37;4.70;;;25.60;43.70;;;;;;5075019;28;20476;-79
2022/08/28 09:24:00;;;;;;;5.07;2.50;;;25.70;43.50;;;;;;5081685;28;20515;-78
2022/08/28 09:26:34;;;;;;;6.80;2.97;;;25.70;42.10;;;;;;5079663;28;20445;-78
2022/08/28 09:29:03;;;;;;;16.53;3.60;;;25.50;42.10;;;;;;5069382;28;20477;-81
2022/08/28 09:31:33;;;;;;;7.20;3.00;;;25.50;44.40;;;;;;5066298;28;20479;-80
2022/08/28 09:34:28;;;;;;;5.50;2.20;;;25.80;42.70;;;;;;5077307;28;20449;-79
2022/08/28 09:36:57;;;;;;;4.10;2.10;;;25.90;42.20;;;;;;5080749;28;20448;-82
2022/08/28 09:39:26;;;;;;;5.77;2.63;;;25.90;41.40;;;;;;5081268;28;20510;-79
2022/08/28 09:44:52;;;;;;;6.17;2.60;;;25.40;40.70;;;;;;5070523;28;20501;-80
2022/08/28 09:47:41;;;;;;;4.50;2.40;;;25.60;42.60;;;;;;5059913;28;20504;-81
2022/08/28 09:50:32;;;;;;;7.13;3.33;;;26.20;41.20;;;;;;5056311;28;20450;-79
2022/08/28 09:53:16;;;;;;;6.43;2.20;;;26.40;39.40;;;;;;5053222;28;20409;-79
2022/08/28 09:55:56;;;;;;;8.50;2.83;;;26.30;40.00;;;;;;5054694;28;20475;-80
2022/08/28 09:58:30;;;;;;;6.87;4.63;;;26.50;39.40;;;;;;5053390;28;20442;-80
2022/08/28 10:01:00;;;;;;;6.10;2.27;;;26.90;40.00;;;;;;5064039;28;20499;-80
2022/08/28 10:03:30;;;;;;;12.73;2.30;;;27.20;38.20;;;;;;5071872;28;20450;-80
2022/08/28 10:06:03;;;;;;;7.10;2.30;;;27.10;38.50;;;;;;5057372;28;20439;-78
2022/08/28 10:09:04;;;;;;;3.53;1.87;;;27.30;37.90;;;;;;5056264;28;20426;-80
2022/08/28 10:11:36;;;;;;;4.80;2.50;;;27.20;36.90;;;;;;5065910;28;20443;-79
2022/08/28 10:14:10;;;;;;;11.13;2.27;;;27.40;37.40;;;;;;5079233;28;20429;-80
2022/08/28 10:16:45;;;;;;;6.17;2.40;;;27.30;36.60;;;;;;5078687;28;20468;-77
2022/08/28 10:19:17;;;;;;;15.37;9.40;;;27.60;37.00;;;;;;5059549;28;20473;-79
2022/08/28 10:21:47;;;;;;;6.47;4.27;;;28.00;36.90;;;;;;5054816;28;20617;-78
2022/08/28 10:24:31;;;;;;;14.50;2.67;;;28.30;35.90;;;;;;5054760;28;20553;-77
2022/08/28 10:27:03;;;;;;;8.00;4.07;;;28.30;35.20;;;;;;5054721;28;20419;-78
2022/08/28 10:29:39;;;;;;;9.87;2.70;;;27.90;36.60;;;;;;5071988;28;20449;-76
2022/08/28 10:32:16;;;;;;;4.33;2.43;;;28.10;36.40;;;;;;5079685;28;20429;-76
2022/08/28 10:34:52;;;;;;;5.73;2.60;;;28.40;36.20;;;;;;5080292;28;20541;-76
2022/08/28 10:37:25;;;;;;;6.90;2.50;;;28.40;35.00;;;;;;5078861;28;20437;-79
2022/08/28 10:39:56;;;;;;;10.57;2.43;;;28.40;35.70;;;;;;5076549;28;21025;-78
2022/08/28 10:42:28;;;;;;;2.83;2.00;;;28.80;35.80;;;;;;5077289;28;20615;-76
2022/08/28 10:45:07;;;;;;;5.57;2.23;;;29.20;35.90;;;;;;5076296;28;20534;-79
2022/08/28 10:47:37;;;;;;;5.60;2.40;;;29.40;35.20;;;;;;5074928;28;20450;-77
2022/08/28 10:50:08;;;;;;;9.70;2.50;;;29.30;35.20;;;;;;5072403;28;20445;-76
2022/08/28 10:52:39;;;;;;;6.27;2.63;;;29.30;35.50;;;;;;5056655;28;20490;-77
2022/08/28 10:55:11;;;;;;;5.23;2.03;;;29.20;35.80;;;;;;5070953;28;20538;-80
2022/08/28 10:57:41;;;;;;;5.00;2.50;;;29.20;36.50;;;;;;5076622;28;20955;-76
2022/08/28 11:00:13;;;;;;;4.83;2.23;;;29.40;36.70;;;;;;5077964;28;20469;-77
2022/08/28 11:02:42;;;;;;;8.27;2.70;;;29.30;35.80;;;;;;5079898;28;20508;-76
2022/08/28 11:05:12;;;;;;;6.53;2.30;;;29.20;36.20;;;;;;5062710;28;20485;-77
2022/08/28 11:07:43;;;;;;;7.87;2.53;;;29.20;36.10;;;;;;5057242;28;20475;-75
2022/08/28 11:10:48;;;;;;;8.80;2.83;;;29.20;35.80;;;;;;5068756;28;20416;-77
2022/08/28 11:13:44;;;;;;;6.93;2.47;;;29.00;36.20;;;;;;5072930;28;20529;-75
2022/08/28 11:16:18;;;;;;;5.20;2.60;;;28.90;36.80;;;;;;5075132;28;20480;-76
2022/08/28 11:19:03;;;;;;;5.63;2.47;;;28.90;37.10;;;;;;5076098;28;20409;-78
2022/08/28 11:21:33;;;;;;;5.07;2.90;;;28.80;37.60;;;;;;5054947;28;20557;-76
2022/08/28 11:24:03;;;;;;;4.77;3.03;;;28.80;37.20;;;;;;5058303;28;20443;-77
2022/08/28 11:26:37;;;;;;;7.90;3.20;;;28.60;37.60;;;;;;5074121;28;20434;-76
2022/08/28 11:29:05;;;;;;;5.67;3.90;;;28.70;37.90;;;;;;5074086;28;20441;-76
2022/08/28 11:31:37;;;;;;;10.70;4.13;;;28.70;37.80;;;;;;5074644;28;20500;-76
2022/08/28 11:34:05;;;;;;;4.83;3.13;;;28.90;38.30;;;;;;5074212;28;20446;-75
2022/08/28 11:36:59;;;;;;;8.27;3.07;;;29.10;37.10;;;;;;5076617;28;20441;-75
2022/08/28 11:39:27;;;;;;;11.10;3.30;;;29.00;36.50;;;;;;5061119;28;20505;-75
2022/08/28 11:42:36;;;;;;;5.70;2.93;;;29.10;36.20;;;;;;5073969;28;20936;-77
2022/08/28 11:45:05;;;;;;;4.30;3.00;;;28.90;36.00;;;;;;5053116;28;20544;-77
2022/08/28 11:47:45;;;;;;;6.20;2.80;;;28.90;36.50;;;;;;5073291;28;20441;-76
2022/08/28 11:50:19;;;;;;;6.83;3.10;;;28.40;36.10;;;;;;5071906;28;20529;-76
2022/08/28 11:53:24;;;;;;;10.03;4.73;;;28.50;36.90;;;;;;5073618;28;20412;-76
2022/08/28 11:56:05;;;;;;;4.77;3.37;;;28.90;37.20;;;;;;5070767;28;20536;-76
2022/08/28 11:58:35;;;;;;;6.03;3.13;;;29.10;36.10;;;;;;5072431;28;20440;-76
2022/08/28 12:01:05;;;;;;;6.07;3.53;;;28.90;36.70;;;;;;5072744;28;20436;-76
2022/08/28 12:03:36;;;;;;;7.40;3.13;;;28.80;36.30;;;;;;5073207;28;20608;-76
2022/08/28 12:06:04;;;;;;;16.43;7.20;;;28.60;36.90;;;;;;5073027;28;20472;-76
2022/08/28 12:09:09;;;;;;;5.37;4.20;;;28.60;36.90;;;;;;5073201;28;20935;-76
2022/08/28 12:12:00;;;;;;;9.67;5.50;;;28.60;37.50;;;;;;5071772;28;20450;-77
2022/08/28 12:15:03;;;;;;;6.47;4.10;;;28.70;37.60;;;;;;5071364;28;20444;-76
2022/08/28 12:17:47;;;;;;;9.00;3.30;;;29.00;38.20;;;;;;5072172;28;20449;-76
2022/08/28 12:20:32;;;;;;;4.83;2.97;;;29.50;37.00;;;;;;5072475;28;20512;-77
2022/08/28 12:23:01;;;;;;;7.00;3.90;;;29.80;36.40;;;;;;5072052;28;20479;-76
2022/08/28 12:25:32;;;;;;;11.50;4.73;;;30.10;36.20;;;;;;5074162;28;20467;-77
2022/08/28 12:28:04;;;;;;;6.43;3.80;;;30.00;35.60;;;;;;5073986;28;20537;-77
2022/08/28 12:30:42;;;;;;;10.60;4.17;;;29.90;35.80;;;;;;5074158;28;20445;-76
2022/08/28 12:33:12;;;;;;;5.67;3.73;;;29.80;35.50;;;;;;5073526;28;20516;-77
2022/08/28 12:35:42;;;;;;;7.37;3.40;;;29.70;35.80;;;;;;5073309;28;20468;-77
2022/08/28 12:38:11;;;;;;;7.90;3.43;;;29.40;36.30;;;;;;5072822;28;20452;-77
2022/08/28 12:40:49;;;;;;;7.50;3.40;;;29.20;36.60;;;;;;5071471;28;20434;-77
2022/08/28 12:43:29;;;;;;;9.10;4.60;;;29.20;36.90;;;;;;5075878;28;20844;-77
2022/08/28 12:45:59;;;;;;;7.23;3.80;;;29.20;36.60;;;;;;5074530;28;20566;-77
2022/08/28 12:48:30;;;;;;;9.80;3.37;;;29.30;37.40;;;;;;5074057;28;20956;-77
2022/08/28 12:51:02;;;;;;;7.30;3.40;;;29.70;37.50;;;;;;5076122;28;20452;-78
2022/08/28 12:53:38;;;;;;;9.83;3.90;;;29.80;37.20;;;;;;5072223;28;20417;-77
2022/08/28 12:56:08;;;;;;;7.70;3.00;;;30.10;37.40;;;;;;5065060;28;20465;-75
2022/08/28 12:58:38;;;;;;;7.37;3.33;;;30.20;36.70;;;;;;5070491;28;20445;-76
2022/08/28 13:01:07;;;;;;;9.30;3.50;;;30.40;36.40;;;;;;5071618;28;20536;-74
2022/08/28 13:03:42;;;;;;;4.60;3.03;;;30.30;35.80;;;;;;5071172;28;20481;-75
2022/08/28 13:06:11;;;;;;;7.30;3.60;;;30.10;35.90;;;;;;5071695;28;20524;-75
2022/08/28 13:08:39;;;;;;;5.80;3.03;;;29.90;36.10;;;;;;5071198;28;20454;-75
2022/08/28 13:11:07;;;;;;;9.37;3.40;;;29.90;36.20;;;;;;5065504;28;20453;-75